sensor_id;sensor_type;location;lat;lon;timestamp;P1;durP1;ratioP1;P2;durP2;ratioP2
19341;SDS011;9807;48.258;12.690;2023-03-31T00:01:29;5.23;;;4.20;;
19341;SDS011;9807;48.258;12.690;2023-03-31T00:04:04;5.50;;;4.10;;
19341;SDS011;9807;48.258;12.690;2023-03-31T00:06:30;4.37;;;3.90;;
19341;SDS011;9807;48.258;12.690;2023-03-31T00:09:05;5.10;;;4.03;;
19341;SDS011;9807;48.258;12.690;2023-03-31T00:11:40;6.80;;;4.13;;
19341;SDS011;9807;48.258;12.690;2023-03-31T00:14:13;6.73;;;4.00;;
19341;SDS011;9807;48.258;12.690;2023-03-31T00:16:41;7.40;;;4.50;;
19341;SDS011;9807;48.258;12.690;2023-03-31T00:19:12;6.60;;;4.40;;
19341;SDS011;9807;48.258;12.690;2023-03-31T00:21:46;8.47;;;5.37;;
19341;SDS011;9807;48.258;12.690;2023-03-31T00:24:15;5.87;;;4.37;;
19341;SDS011;9807;48.258;12.690;2023-03-31T00:26:41;5.63;;;3.90;;
19341;SDS011;9807;48.258;12.690;2023-03-31T00:29:08;6.30;;;4.10;;
19341;SDS011;9807;48.258;12.690;2023-03-31T00:31:39;5.33;;;3.60;;
19341;SDS011;9807;48.258;12.690;2023-03-31T00:34:05;6.90;;;4.40;;
19341;SDS011;9807;48.258;12.690;2023-03-31T00:36:31;7.63;;;5.67;;
19341;SDS011;9807;48.258;12.690;2023-03-31T00:39:00;8.73;;;5.70;;
19341;SDS011;9807;48.258;12.690;2023-03-31T00:41:33;7.40;;;5.97;;
19341;SDS011;9807;48.258;12.690;2023-03-31T00:49:33;7.97;;;5.07;;
19341;SDS011;9807;48.258;12.690;2023-03-31T00:52:16;4.80;;;3.80;;
19341;SDS011;9807;48.258;12.690;2023-03-31T00:54:47;8.20;;;4.57;;
19341;SDS011;9807;48.258;12.690;2023-03-31T00:57:20;6.53;;;4.53;;
19341;SDS011;9807;48.258;12.690;2023-03-31T00:59:49;5.77;;;4.27;;
19341;SDS011;9807;48.258;12.690;2023-03-31T01:02:27;5.40;;;4.60;;
19341;SDS011;9807;48.258;12.690;2023-03-31T01:04:57;7.83;;;4.17;;
19341;SDS011;9807;48.258;12.690;2023-03-31T01:07:28;5.37;;;4.70;;
19341;SDS011;9807;48.258;12.690;2023-03-31T01:10:05;9.00;;;5.47;;
19341;SDS011;9807;48.258;12.690;2023-03-31T01:12:33;6.97;;;4.87;;
19341;SDS011;9807;48.258;12.690;2023-03-31T01:15:03;5.77;;;4.43;;
19341;SDS011;9807;48.258;12.690;2023-03-31T01:17:29;7.47;;;6.00;;
19341;SDS011;9807;48.258;12.690;2023-03-31T01:20:00;10.50;;;5.30;;
19341;SDS011;9807;48.258;12.690;2023-03-31T01:28:25;6.07;;;3.87;;
19341;SDS011;9807;48.258;12.690;2023-03-31T01:48:23;5.37;;;4.20;;
19341;SDS011;9807;48.258;12.690;2023-03-31T01:56:25;6.00;;;4.80;;
19341;SDS011;9807;48.258;12.690;2023-03-31T01:59:07;5.47;;;4.23;;
19341;SDS011;9807;48.258;12.690;2023-03-31T02:01:58;4.60;;;3.93;;
19341;SDS011;9807;48.258;12.690;2023-03-31T02:05:08;4.30;;;3.67;;
19341;SDS011;9807;48.258;12.690;2023-03-31T02:07:34;4.30;;;3.77;;
19341;SDS011;9807;48.258;12.690;2023-03-31T02:10:06;8.43;;;5.50;;
19341;SDS011;9807;48.258;12.690;2023-03-31T02:12:33;8.07;;;5.17;;
19341;SDS011;9807;48.258;12.690;2023-03-31T02:15:06;7.70;;;4.83;;
19341;SDS011;9807;48.258;12.690;2023-03-31T02:17:35;5.13;;;4.23;;
19341;SDS011;9807;48.258;12.690;2023-03-31T02:20:06;4.20;;;3.70;;
19341;SDS011;9807;48.258;12.690;2023-03-31T02:22:37;9.67;;;5.13;;
19341;SDS011;9807;48.258;12.690;2023-03-31T02:25:05;4.97;;;4.47;;
19341;SDS011;9807;48.258;12.690;2023-03-31T02:27:39;5.07;;;4.20;;
19341;SDS011;9807;48.258;12.690;2023-03-31T02:30:07;4.47;;;3.90;;
19341;SDS011;9807;48.258;12.690;2023-03-31T02:32:40;4.33;;;3.50;;
19341;SDS011;9807;48.258;12.690;2023-03-31T02:35:19;5.20;;;3.80;;
19341;SDS011;9807;48.258;12.690;2023-03-31T02:37:46;5.33;;;4.30;;
19341;SDS011;9807;48.258;12.690;2023-03-31T02:40:17;6.53;;;4.47;;
19341;SDS011;9807;48.258;12.690;2023-03-31T02:42:45;4.37;;;3.30;;
19341;SDS011;9807;48.258;12.690;2023-03-31T02:48:06;4.97;;;4.03;;
19341;SDS011;9807;48.258;12.690;2023-03-31T02:51:29;5.57;;;3.83;;
19341;SDS011;9807;48.258;12.690;2023-03-31T03:01:40;4.43;;;3.40;;
19341;SDS011;9807;48.258;12.690;2023-03-31T03:10:06;3.57;;;3.27;;
19341;SDS011;9807;48.258;12.690;2023-03-31T03:15:12;6.63;;;4.30;;
19341;SDS011;9807;48.258;12.690;2023-03-31T03:18:03;8.23;;;3.83;;
19341;SDS011;9807;48.258;12.690;2023-03-31T03:20:30;4.13;;;3.60;;
19341;SDS011;9807;48.258;12.690;2023-03-31T03:22:58;5.03;;;3.53;;
19341;SDS011;9807;48.258;12.690;2023-03-31T03:25:24;4.47;;;3.10;;
19341;SDS011;9807;48.258;12.690;2023-03-31T03:27:50;4.73;;;3.20;;
19341;SDS011;9807;48.258;12.690;2023-03-31T03:30:18;4.17;;;3.60;;
19341;SDS011;9807;48.258;12.690;2023-03-31T03:32:44;4.83;;;3.93;;
19341;SDS011;9807;48.258;12.690;2023-03-31T03:35:10;5.13;;;3.67;;
19341;SDS011;9807;48.258;12.690;2023-03-31T03:37:36;3.77;;;3.17;;
19341;SDS011;9807;48.258;12.690;2023-03-31T03:40:02;4.07;;;3.03;;
19341;SDS011;9807;48.258;12.690;2023-03-31T03:42:30;5.17;;;3.73;;
19341;SDS011;9807;48.258;12.690;2023-03-31T03:44:56;5.90;;;4.53;;
19341;SDS011;9807;48.258;12.690;2023-03-31T03:47:22;4.97;;;4.20;;
19341;SDS011;9807;48.258;12.690;2023-03-31T03:49:48;4.67;;;3.90;;
19341;SDS011;9807;48.258;12.690;2023-03-31T03:52:17;13.33;;;7.93;;
19341;SDS011;9807;48.258;12.690;2023-03-31T03:54:43;6.53;;;5.40;;
19341;SDS011;9807;48.258;12.690;2023-03-31T03:57:09;7.20;;;4.70;;
19341;SDS011;9807;48.258;12.690;2023-03-31T03:59:37;5.33;;;4.50;;
19341;SDS011;9807;48.258;12.690;2023-03-31T04:02:03;5.50;;;4.47;;
19341;SDS011;9807;48.258;12.690;2023-03-31T04:04:29;5.37;;;4.50;;
19341;SDS011;9807;48.258;12.690;2023-03-31T04:06:55;5.87;;;3.97;;
19341;SDS011;9807;48.258;12.690;2023-03-31T04:09:20;6.93;;;5.30;;
19341;SDS011;9807;48.258;12.690;2023-03-31T04:11:46;9.77;;;5.30;;
19341;SDS011;9807;48.258;12.690;2023-03-31T04:14:12;7.77;;;4.97;;
19341;SDS011;9807;48.258;12.690;2023-03-31T04:16:37;8.03;;;5.23;;
19341;SDS011;9807;48.258;12.690;2023-03-31T04:19:07;9.43;;;5.70;;
19341;SDS011;9807;48.258;12.690;2023-03-31T04:21:35;5.83;;;4.67;;
19341;SDS011;9807;48.258;12.690;2023-03-31T04:24:01;13.30;;;6.67;;
19341;SDS011;9807;48.258;12.690;2023-03-31T04:26:29;9.17;;;6.27;;
19341;SDS011;9807;48.258;12.690;2023-03-31T04:29:17;8.67;;;5.53;;
19341;SDS011;9807;48.258;12.690;2023-03-31T04:31:49;6.27;;;5.10;;
19341;SDS011;9807;48.258;12.690;2023-03-31T04:34:16;6.97;;;5.20;;
19341;SDS011;9807;48.258;12.690;2023-03-31T04:36:46;7.40;;;4.90;;
19341;SDS011;9807;48.258;12.690;2023-03-31T04:39:16;6.43;;;5.10;;
19341;SDS011;9807;48.258;12.690;2023-03-31T04:41:51;6.30;;;4.60;;
19341;SDS011;9807;48.258;12.690;2023-03-31T04:44:17;8.87;;;5.37;;
19341;SDS011;9807;48.258;12.690;2023-03-31T04:46:43;6.47;;;4.40;;
19341;SDS011;9807;48.258;12.690;2023-03-31T04:49:09;7.70;;;5.27;;
19341;SDS011;9807;48.258;12.690;2023-03-31T04:51:38;7.57;;;3.97;;
19341;SDS011;9807;48.258;12.690;2023-03-31T04:54:06;9.67;;;5.80;;
19341;SDS011;9807;48.258;12.690;2023-03-31T04:56:32;7.20;;;5.37;;
19341;SDS011;9807;48.258;12.690;2023-03-31T04:58:58;7.00;;;5.47;;
19341;SDS011;9807;48.258;12.690;2023-03-31T05:01:24;7.47;;;5.07;;
19341;SDS011;9807;48.258;12.690;2023-03-31T05:03:50;7.60;;;5.00;;
19341;SDS011;9807;48.258;12.690;2023-03-31T05:06:15;12.17;;;6.10;;
19341;SDS011;9807;48.258;12.690;2023-03-31T05:08:41;19.93;;;11.07;;
19341;SDS011;9807;48.258;12.690;2023-03-31T05:11:08;11.70;;;7.30;;
19341;SDS011;9807;48.258;12.690;2023-03-31T05:13:35;12.90;;;6.70;;
19341;SDS011;9807;48.258;12.690;2023-03-31T05:16:08;7.00;;;5.17;;
19341;SDS011;9807;48.258;12.690;2023-03-31T05:18:47;5.63;;;4.30;;
19341;SDS011;9807;48.258;12.690;2023-03-31T05:21:19;10.57;;;4.47;;
19341;SDS011;9807;48.258;12.690;2023-03-31T05:23:45;6.53;;;4.00;;
19341;SDS011;9807;48.258;12.690;2023-03-31T05:26:12;7.60;;;4.87;;
19341;SDS011;9807;48.258;12.690;2023-03-31T05:28:38;7.63;;;5.00;;
19341;SDS011;9807;48.258;12.690;2023-03-31T05:31:05;6.73;;;4.20;;
19341;SDS011;9807;48.258;12.690;2023-03-31T05:33:32;5.70;;;3.70;;
19341;SDS011;9807;48.258;12.690;2023-03-31T05:36:04;5.53;;;3.80;;
19341;SDS011;9807;48.258;12.690;2023-03-31T05:38:30;4.00;;;3.10;;
19341;SDS011;9807;48.258;12.690;2023-03-31T05:40:58;13.57;;;6.33;;
19341;SDS011;9807;48.258;12.690;2023-03-31T05:43:24;9.97;;;5.47;;
19341;SDS011;9807;48.258;12.690;2023-03-31T05:45:50;5.57;;;4.07;;
19341;SDS011;9807;48.258;12.690;2023-03-31T05:48:16;5.40;;;3.50;;
19341;SDS011;9807;48.258;12.690;2023-03-31T05:50:41;5.00;;;3.40;;
19341;SDS011;9807;48.258;12.690;2023-03-31T05:53:08;6.93;;;3.40;;
19341;SDS011;9807;48.258;12.690;2023-03-31T05:55:36;5.67;;;4.17;;
19341;SDS011;9807;48.258;12.690;2023-03-31T05:58:03;8.57;;;4.87;;
19341;SDS011;9807;48.258;12.690;2023-03-31T06:00:29;6.27;;;3.57;;
19341;SDS011;9807;48.258;12.690;2023-03-31T06:02:55;5.33;;;3.57;;
19341;SDS011;9807;48.258;12.690;2023-03-31T06:05:21;4.37;;;3.57;;
19341;SDS011;9807;48.258;12.690;2023-03-31T06:07:50;14.40;;;7.53;;
19341;SDS011;9807;48.258;12.690;2023-03-31T06:10:16;21.20;;;9.60;;
19341;SDS011;9807;48.258;12.690;2023-03-31T06:12:42;20.40;;;8.40;;
19341;SDS011;9807;48.258;12.690;2023-03-31T06:15:08;13.63;;;6.40;;
19341;SDS011;9807;48.258;12.690;2023-03-31T06:17:37;5.70;;;4.47;;
19341;SDS011;9807;48.258;12.690;2023-03-31T06:20:02;6.97;;;3.77;;
19341;SDS011;9807;48.258;12.690;2023-03-31T06:22:30;6.50;;;3.90;;
19341;SDS011;9807;48.258;12.690;2023-03-31T06:24:56;7.77;;;4.03;;
19341;SDS011;9807;48.258;12.690;2023-03-31T06:27:21;5.40;;;3.90;;
19341;SDS011;9807;48.258;12.690;2023-03-31T06:29:47;8.27;;;4.40;;
19341;SDS011;9807;48.258;12.690;2023-03-31T06:32:14;9.93;;;5.70;;
19341;SDS011;9807;48.258;12.690;2023-03-31T06:34:40;8.10;;;4.50;;
19341;SDS011;9807;48.258;12.690;2023-03-31T06:37:05;6.83;;;4.23;;
19341;SDS011;9807;48.258;12.690;2023-03-31T06:39:31;11.80;;;7.00;;
19341;SDS011;9807;48.258;12.690;2023-03-31T06:41:56;11.47;;;6.43;;
19341;SDS011;9807;48.258;12.690;2023-03-31T06:44:22;7.80;;;5.70;;
19341;SDS011;9807;48.258;12.690;2023-03-31T06:46:48;12.47;;;6.20;;
19341;SDS011;9807;48.258;12.690;2023-03-31T06:49:14;12.97;;;7.10;;
19341;SDS011;9807;48.258;12.690;2023-03-31T06:51:46;9.67;;;7.03;;
19341;SDS011;9807;48.258;12.690;2023-03-31T06:54:11;8.43;;;5.00;;
19341;SDS011;9807;48.258;12.690;2023-03-31T06:56:37;9.67;;;5.17;;
19341;SDS011;9807;48.258;12.690;2023-03-31T06:59:03;9.13;;;5.10;;
19341;SDS011;9807;48.258;12.690;2023-03-31T07:01:28;6.83;;;4.67;;
19341;SDS011;9807;48.258;12.690;2023-03-31T07:03:55;11.40;;;5.97;;
19341;SDS011;9807;48.258;12.690;2023-03-31T07:06:23;12.77;;;7.23;;
19341;SDS011;9807;48.258;12.690;2023-03-31T07:08:49;10.47;;;7.40;;
19341;SDS011;9807;48.258;12.690;2023-03-31T07:11:18;9.70;;;5.23;;
19341;SDS011;9807;48.258;12.690;2023-03-31T07:13:43;9.40;;;5.40;;
19341;SDS011;9807;48.258;12.690;2023-03-31T07:16:12;9.57;;;6.00;;
19341;SDS011;9807;48.258;12.690;2023-03-31T07:18:40;14.30;;;6.83;;
19341;SDS011;9807;48.258;12.690;2023-03-31T07:21:06;9.23;;;5.50;;
19341;SDS011;9807;48.258;12.690;2023-03-31T07:23:32;9.13;;;5.60;;
19341;SDS011;9807;48.258;12.690;2023-03-31T07:25:58;9.63;;;5.30;;
19341;SDS011;9807;48.258;12.690;2023-03-31T07:28:27;9.20;;;4.90;;
19341;SDS011;9807;48.258;12.690;2023-03-31T07:30:53;13.80;;;7.43;;
19341;SDS011;9807;48.258;12.690;2023-03-31T07:33:18;11.20;;;5.90;;
19341;SDS011;9807;48.258;12.690;2023-03-31T07:35:44;9.73;;;6.13;;
19341;SDS011;9807;48.258;12.690;2023-03-31T07:38:10;10.77;;;6.60;;
19341;SDS011;9807;48.258;12.690;2023-03-31T07:40:40;11.40;;;6.97;;
19341;SDS011;9807;48.258;12.690;2023-03-31T07:43:10;12.20;;;6.60;;
19341;SDS011;9807;48.258;12.690;2023-03-31T07:45:37;7.27;;;5.13;;
19341;SDS011;9807;48.258;12.690;2023-03-31T07:48:04;15.80;;;7.67;;
19341;SDS011;9807;48.258;12.690;2023-03-31T07:50:33;12.00;;;7.63;;
19341;SDS011;9807;48.258;12.690;2023-03-31T07:53:02;13.47;;;8.20;;
19341;SDS011;9807;48.258;12.690;2023-03-31T07:55:28;13.17;;;7.30;;
19341;SDS011;9807;48.258;12.690;2023-03-31T07:57:56;11.43;;;7.33;;
19341;SDS011;9807;48.258;12.690;2023-03-31T08:00:22;13.27;;;8.33;;
19341;SDS011;9807;48.258;12.690;2023-03-31T08:02:48;15.63;;;7.33;;
19341;SDS011;9807;48.258;12.690;2023-03-31T08:05:15;12.27;;;7.50;;
19341;SDS011;9807;48.258;12.690;2023-03-31T08:07:45;14.57;;;8.20;;
19341;SDS011;9807;48.258;12.690;2023-03-31T08:10:14;14.43;;;9.27;;
19341;SDS011;9807;48.258;12.690;2023-03-31T08:12:42;16.43;;;8.03;;
19341;SDS011;9807;48.258;12.690;2023-03-31T08:15:08;16.53;;;9.70;;
19341;SDS011;9807;48.258;12.690;2023-03-31T08:17:38;18.93;;;9.83;;
19341;SDS011;9807;48.258;12.690;2023-03-31T08:20:04;16.13;;;10.00;;
19341;SDS011;9807;48.258;12.690;2023-03-31T08:22:37;19.00;;;9.53;;
19341;SDS011;9807;48.258;12.690;2023-03-31T08:25:04;17.10;;;9.37;;
19341;SDS011;9807;48.258;12.690;2023-03-31T08:27:41;16.20;;;10.17;;
19341;SDS011;9807;48.258;12.690;2023-03-31T08:30:07;23.63;;;9.57;;
19341;SDS011;9807;48.258;12.690;2023-03-31T08:32:35;13.50;;;7.87;;
19341;SDS011;9807;48.258;12.690;2023-03-31T08:35:01;16.60;;;8.17;;
19341;SDS011;9807;48.258;12.690;2023-03-31T08:37:28;17.17;;;9.10;;
19341;SDS011;9807;48.258;12.690;2023-03-31T08:39:54;20.73;;;9.93;;
19341;SDS011;9807;48.258;12.690;2023-03-31T08:42:45;16.37;;;9.70;;
19341;SDS011;9807;48.258;12.690;2023-03-31T08:47:50;14.00;;;8.10;;
19341;SDS011;9807;48.258;12.690;2023-03-31T08:50:26;12.93;;;6.70;;
19341;SDS011;9807;48.258;12.690;2023-03-31T08:53:00;15.30;;;7.37;;
19341;SDS011;9807;48.258;12.690;2023-03-31T08:55:55;10.83;;;6.63;;
19341;SDS011;9807;48.258;12.690;2023-03-31T08:58:32;13.43;;;6.60;;
19341;SDS011;9807;48.258;12.690;2023-03-31T09:06:30;11.80;;;6.53;;
19341;SDS011;9807;48.258;12.690;2023-03-31T09:11:52;11.20;;;6.57;;
19341;SDS011;9807;48.258;12.690;2023-03-31T09:17:12;10.87;;;5.60;;
19341;SDS011;9807;48.258;12.690;2023-03-31T09:20:22;10.00;;;5.70;;
19341;SDS011;9807;48.258;12.690;2023-03-31T09:22:58;10.63;;;6.47;;
19341;SDS011;9807;48.258;12.690;2023-03-31T09:25:31;13.27;;;7.27;;
19341;SDS011;9807;48.258;12.690;2023-03-31T09:28:01;11.60;;;7.33;;
19341;SDS011;9807;48.258;12.690;2023-03-31T09:30:29;15.73;;;7.20;;
19341;SDS011;9807;48.258;12.690;2023-03-31T09:33:41;13.80;;;6.67;;
19341;SDS011;9807;48.258;12.690;2023-03-31T09:36:02;11.37;;;6.03;;
19341;SDS011;9807;48.258;12.690;2023-03-31T09:38:39;15.50;;;6.20;;
19341;SDS011;9807;48.258;12.690;2023-03-31T09:41:06;19.00;;;7.47;;
19341;SDS011;9807;48.258;12.690;2023-03-31T09:43:35;13.73;;;8.23;;
19341;SDS011;9807;48.258;12.690;2023-03-31T09:46:20;15.57;;;8.20;;
19341;SDS011;9807;48.258;12.690;2023-03-31T09:48:59;18.27;;;8.53;;
19341;SDS011;9807;48.258;12.690;2023-03-31T09:51:37;12.90;;;7.57;;
19341;SDS011;9807;48.258;12.690;2023-03-31T09:54:11;15.37;;;7.90;;
19341;SDS011;9807;48.258;12.690;2023-03-31T09:56:49;18.73;;;8.67;;
19341;SDS011;9807;48.258;12.690;2023-03-31T09:59:29;17.70;;;8.70;;
19341;SDS011;9807;48.258;12.690;2023-03-31T10:01:59;14.67;;;8.33;;
19341;SDS011;9807;48.258;12.690;2023-03-31T10:04:28;12.70;;;7.33;;
19341;SDS011;9807;48.258;12.690;2023-03-31T10:07:00;17.23;;;9.10;;
19341;SDS011;9807;48.258;12.690;2023-03-31T10:09:29;14.87;;;8.13;;
19341;SDS011;9807;48.258;12.690;2023-03-31T10:11:57;13.70;;;7.17;;
19341;SDS011;9807;48.258;12.690;2023-03-31T10:14:46;13.50;;;7.47;;
19341;SDS011;9807;48.258;12.690;2023-03-31T10:17:23;15.30;;;7.70;;
19341;SDS011;9807;48.258;12.690;2023-03-31T10:19:57;15.03;;;7.70;;
19341;SDS011;9807;48.258;12.690;2023-03-31T10:22:29;16.03;;;7.67;;
19341;SDS011;9807;48.258;12.690;2023-03-31T10:25:07;15.27;;;7.33;;
19341;SDS011;9807;48.258;12.690;2023-03-31T10:27:38;17.00;;;8.20;;
19341;SDS011;9807;48.258;12.690;2023-03-31T10:30:08;14.50;;;7.67;;
19341;SDS011;9807;48.258;12.690;2023-03-31T10:32:40;19.70;;;8.67;;
19341;SDS011;9807;48.258;12.690;2023-03-31T10:35:19;14.13;;;7.30;;
19341;SDS011;9807;48.258;12.690;2023-03-31T10:37:49;16.67;;;7.80;;
19341;SDS011;9807;48.258;12.690;2023-03-31T10:40:21;12.13;;;7.83;;
19341;SDS011;9807;48.258;12.690;2023-03-31T10:42:59;19.03;;;9.13;;
19341;SDS011;9807;48.258;12.690;2023-03-31T10:45:47;17.13;;;8.90;;
19341;SDS011;9807;48.258;12.690;2023-03-31T10:48:18;16.17;;;9.20;;
19341;SDS011;9807;48.258;12.690;2023-03-31T10:50:59;15.83;;;7.40;;
19341;SDS011;9807;48.258;12.690;2023-03-31T10:53:29;15.07;;;8.37;;
19341;SDS011;9807;48.258;12.690;2023-03-31T10:56:39;17.97;;;8.20;;
19341;SDS011;9807;48.258;12.690;2023-03-31T11:16:12;11.10;;;6.40;;
19341;SDS011;9807;48.258;12.690;2023-03-31T11:18:54;10.73;;;6.03;;
19341;SDS011;9807;48.258;12.690;2023-03-31T11:38:33;7.43;;;4.43;;
19341;SDS011;9807;48.258;12.690;2023-03-31T11:41:33;10.20;;;4.70;;
19341;SDS011;9807;48.258;12.690;2023-03-31T11:44:15;7.87;;;5.50;;
19341;SDS011;9807;48.258;12.690;2023-03-31T11:46:50;8.20;;;5.30;;
19341;SDS011;9807;48.258;12.690;2023-03-31T11:52:29;9.10;;;4.43;;
19341;SDS011;9807;48.258;12.690;2023-03-31T11:55:16;10.50;;;4.17;;
19341;SDS011;9807;48.258;12.690;2023-03-31T11:57:49;8.73;;;4.43;;
19341;SDS011;9807;48.258;12.690;2023-03-31T12:00:39;8.63;;;4.67;;
19341;SDS011;9807;48.258;12.690;2023-03-31T12:05:44;10.73;;;4.70;;
19341;SDS011;9807;48.258;12.690;2023-03-31T12:08:34;7.50;;;4.27;;
19341;SDS011;9807;48.258;12.690;2023-03-31T12:11:03;6.70;;;3.97;;
19341;SDS011;9807;48.258;12.690;2023-03-31T12:17:14;6.33;;;4.30;;
19341;SDS011;9807;48.258;12.690;2023-03-31T12:19:51;11.82;;;5.10;;
19341;SDS011;9807;48.258;12.690;2023-03-31T12:24:55;8.60;;;4.30;;
19341;SDS011;9807;48.258;12.690;2023-03-31T12:27:24;8.27;;;5.00;;
19341;SDS011;9807;48.258;12.690;2023-03-31T12:32:59;11.53;;;5.63;;
19341;SDS011;9807;48.258;12.690;2023-03-31T12:41:30;12.93;;;6.83;;
19341;SDS011;9807;48.258;12.690;2023-03-31T12:49:33;12.20;;;5.20;;
19341;SDS011;9807;48.258;12.690;2023-03-31T12:52:44;11.00;;;4.83;;
19341;SDS011;9807;48.258;12.690;2023-03-31T12:57:52;6.97;;;3.23;;
19341;SDS011;9807;48.258;12.690;2023-03-31T13:06:04;8.97;;;3.30;;
19341;SDS011;9807;48.258;12.690;2023-03-31T13:08:49;6.20;;;3.10;;
19341;SDS011;9807;48.258;12.690;2023-03-31T13:14:22;7.20;;;4.00;;
19341;SDS011;9807;48.258;12.690;2023-03-31T13:17:10;10.33;;;4.10;;
19341;SDS011;9807;48.258;12.690;2023-03-31T13:19:36;4.90;;;3.40;;
19341;SDS011;9807;48.258;12.690;2023-03-31T13:22:04;5.17;;;3.10;;
19341;SDS011;9807;48.258;12.690;2023-03-31T13:24:33;5.20;;;2.57;;
19341;SDS011;9807;48.258;12.690;2023-03-31T13:30:00;3.20;;;2.80;;
19341;SDS011;9807;48.258;12.690;2023-03-31T13:32:26;3.60;;;2.40;;
19341;SDS011;9807;48.258;12.690;2023-03-31T13:40:32;4.40;;;2.37;;
19341;SDS011;9807;48.258;12.690;2023-03-31T13:43:26;4.90;;;2.30;;
19341;SDS011;9807;48.258;12.690;2023-03-31T13:51:22;6.10;;;3.10;;
19341;SDS011;9807;48.258;12.690;2023-03-31T13:54:17;6.37;;;3.17;;
19341;SDS011;9807;48.258;12.690;2023-03-31T14:00:02;6.50;;;3.17;;
19341;SDS011;9807;48.258;12.690;2023-03-31T14:05:56;4.77;;;2.83;;
19341;SDS011;9807;48.258;12.690;2023-03-31T14:08:35;6.37;;;3.03;;
19341;SDS011;9807;48.258;12.690;2023-03-31T14:11:22;5.63;;;3.10;;
19341;SDS011;9807;48.258;12.690;2023-03-31T14:16:30;6.00;;;3.23;;
19341;SDS011;9807;48.258;12.690;2023-03-31T14:25:41;4.97;;;3.10;;
19341;SDS011;9807;48.258;12.690;2023-03-31T14:28:21;4.37;;;2.97;;
19341;SDS011;9807;48.258;12.690;2023-03-31T14:33:46;6.10;;;2.87;;
19341;SDS011;9807;48.258;12.690;2023-03-31T14:39:19;5.20;;;2.33;;
19341;SDS011;9807;48.258;12.690;2023-03-31T14:41:53;4.10;;;2.40;;
19341;SDS011;9807;48.258;12.690;2023-03-31T14:44:24;4.53;;;2.30;;
19341;SDS011;9807;48.258;12.690;2023-03-31T14:46:51;4.67;;;2.27;;
19341;SDS011;9807;48.258;12.690;2023-03-31T14:49:20;3.67;;;2.10;;
19341;SDS011;9807;48.258;12.690;2023-03-31T14:51:58;2.93;;;1.83;;
19341;SDS011;9807;48.258;12.690;2023-03-31T14:54:25;4.87;;;1.70;;
19341;SDS011;9807;48.258;12.690;2023-03-31T14:56:55;3.90;;;1.57;;
19341;SDS011;9807;48.258;12.690;2023-03-31T14:59:25;3.80;;;1.60;;
19341;SDS011;9807;48.258;12.690;2023-03-31T15:01:55;7.20;;;1.77;;
19341;SDS011;9807;48.258;12.690;2023-03-31T15:04:27;4.60;;;1.90;;
19341;SDS011;9807;48.258;12.690;2023-03-31T15:06:54;3.07;;;1.50;;
19341;SDS011;9807;48.258;12.690;2023-03-31T15:09:23;3.17;;;1.30;;
19341;SDS011;9807;48.258;12.690;2023-03-31T15:11:59;3.40;;;1.63;;
19341;SDS011;9807;48.258;12.690;2023-03-31T15:14:28;7.33;;;1.97;;
19341;SDS011;9807;48.258;12.690;2023-03-31T15:17:00;2.40;;;1.20;;
19341;SDS011;9807;48.258;12.690;2023-03-31T15:19:28;6.03;;;1.50;;
19341;SDS011;9807;48.258;12.690;2023-03-31T15:21:56;3.50;;;1.37;;
19341;SDS011;9807;48.258;12.690;2023-03-31T15:24:26;7.87;;;1.43;;
19341;SDS011;9807;48.258;12.690;2023-03-31T15:32:03;5.20;;;1.73;;
19341;SDS011;9807;48.258;12.690;2023-03-31T15:34:40;4.70;;;1.43;;
19341;SDS011;9807;48.258;12.690;2023-03-31T15:37:07;5.10;;;1.50;;
19341;SDS011;9807;48.258;12.690;2023-03-31T15:39:37;5.27;;;1.63;;
19341;SDS011;9807;48.258;12.690;2023-03-31T15:42:08;4.60;;;1.70;;
19341;SDS011;9807;48.258;12.690;2023-03-31T15:47:20;4.20;;;1.63;;
19341;SDS011;9807;48.258;12.690;2023-03-31T15:52:33;3.73;;;1.50;;
19341;SDS011;9807;48.258;12.690;2023-03-31T15:57:50;2.77;;;1.13;;
19341;SDS011;9807;48.258;12.690;2023-03-31T16:03:02;3.90;;;1.13;;
19341;SDS011;9807;48.258;12.690;2023-03-31T16:05:41;4.23;;;1.30;;
19341;SDS011;9807;48.258;12.690;2023-03-31T16:11:16;3.13;;;1.90;;
19341;SDS011;9807;48.258;12.690;2023-03-31T16:13:49;1.80;;;1.20;;
19341;SDS011;9807;48.258;12.690;2023-03-31T16:16:19;2.90;;;1.40;;
19341;SDS011;9807;48.258;12.690;2023-03-31T16:18:50;3.67;;;1.37;;
19341;SDS011;9807;48.258;12.690;2023-03-31T16:21:28;3.33;;;1.17;;
19341;SDS011;9807;48.258;12.690;2023-03-31T16:24:07;2.43;;;1.50;;
19341;SDS011;9807;48.258;12.690;2023-03-31T16:26:33;1.97;;;1.20;;
19341;SDS011;9807;48.258;12.690;2023-03-31T16:29:01;1.50;;;1.10;;
19341;SDS011;9807;48.258;12.690;2023-03-31T16:31:36;5.13;;;1.63;;
19341;SDS011;9807;48.258;12.690;2023-03-31T16:34:07;1.73;;;1.10;;
19341;SDS011;9807;48.258;12.690;2023-03-31T16:36:35;5.27;;;2.00;;
19341;SDS011;9807;48.258;12.690;2023-03-31T16:39:02;5.57;;;1.33;;
19341;SDS011;9807;48.258;12.690;2023-03-31T16:41:32;2.37;;;1.10;;
19341;SDS011;9807;48.258;12.690;2023-03-31T16:44:00;1.67;;;1.10;;
19341;SDS011;9807;48.258;12.690;2023-03-31T16:46:30;2.33;;;1.07;;
19341;SDS011;9807;48.258;12.690;2023-03-31T16:48:56;2.43;;;1.03;;
19341;SDS011;9807;48.258;12.690;2023-03-31T16:51:21;2.80;;;1.40;;
19341;SDS011;9807;48.258;12.690;2023-03-31T16:53:47;1.50;;;1.20;;
19341;SDS011;9807;48.258;12.690;2023-03-31T16:56:13;2.77;;;1.10;;
19341;SDS011;9807;48.258;12.690;2023-03-31T16:58:40;3.27;;;1.53;;
19341;SDS011;9807;48.258;12.690;2023-03-31T17:01:06;4.27;;;2.23;;
19341;SDS011;9807;48.258;12.690;2023-03-31T17:03:34;5.73;;;3.10;;
19341;SDS011;9807;48.258;12.690;2023-03-31T17:06:09;3.97;;;2.00;;
19341;SDS011;9807;48.258;12.690;2023-03-31T17:08:39;2.57;;;1.60;;
19341;SDS011;9807;48.258;12.690;2023-03-31T17:11:09;3.97;;;1.50;;
19341;SDS011;9807;48.258;12.690;2023-03-31T17:13:40;2.43;;;1.13;;
19341;SDS011;9807;48.258;12.690;2023-03-31T17:16:07;2.30;;;1.00;;
19341;SDS011;9807;48.258;12.690;2023-03-31T17:18:33;2.40;;;1.20;;
19341;SDS011;9807;48.258;12.690;2023-03-31T17:21:03;3.80;;;1.10;;
19341;SDS011;9807;48.258;12.690;2023-03-31T17:23:37;3.33;;;1.20;;
19341;SDS011;9807;48.258;12.690;2023-03-31T17:26:04;2.93;;;1.13;;
19341;SDS011;9807;48.258;12.690;2023-03-31T17:28:33;2.80;;;1.17;;
19341;SDS011;9807;48.258;12.690;2023-03-31T17:31:09;5.37;;;1.90;;
19341;SDS011;9807;48.258;12.690;2023-03-31T17:33:39;3.20;;;1.10;;
19341;SDS011;9807;48.258;12.690;2023-03-31T17:36:06;2.53;;;0.93;;
19341;SDS011;9807;48.258;12.690;2023-03-31T17:38:32;4.87;;;1.30;;
19341;SDS011;9807;48.258;12.690;2023-03-31T17:41:05;3.67;;;1.10;;
19341;SDS011;9807;48.258;12.690;2023-03-31T17:43:32;3.40;;;1.00;;
19341;SDS011;9807;48.258;12.690;2023-03-31T17:46:03;2.60;;;1.20;;
19341;SDS011;9807;48.258;12.690;2023-03-31T17:48:31;5.03;;;1.40;;
19341;SDS011;9807;48.258;12.690;2023-03-31T17:51:20;4.83;;;1.20;;
19341;SDS011;9807;48.258;12.690;2023-03-31T17:53:46;2.77;;;1.10;;
19341;SDS011;9807;48.258;12.690;2023-03-31T17:56:13;3.20;;;1.93;;
19341;SDS011;9807;48.258;12.690;2023-03-31T17:58:39;4.10;;;2.10;;
19341;SDS011;9807;48.258;12.690;2023-03-31T18:01:06;7.60;;;2.00;;
19341;SDS011;9807;48.258;12.690;2023-03-31T18:03:38;4.07;;;1.80;;
19341;SDS011;9807;48.258;12.690;2023-03-31T18:06:13;3.70;;;1.43;;
19341;SDS011;9807;48.258;12.690;2023-03-31T18:08:39;2.40;;;1.40;;
19341;SDS011;9807;48.258;12.690;2023-03-31T18:11:06;2.90;;;1.27;;
19341;SDS011;9807;48.258;12.690;2023-03-31T18:13:33;3.93;;;1.37;;
19341;SDS011;9807;48.258;12.690;2023-03-31T18:16:03;2.83;;;1.40;;
19341;SDS011;9807;48.258;12.690;2023-03-31T18:18:30;4.70;;;1.30;;
19341;SDS011;9807;48.258;12.690;2023-03-31T18:20:56;4.20;;;1.30;;